sensor_id;sensor_type;location;lat;lon;timestamp;pressure;altitude;pressure_sealevel;temperature;humidity
13015;BME280;6573;57.696;11.950;2022-08-01T00:01:15;101058.34;;;20.20;100.00
13015;BME280;6573;57.696;11.950;2022-08-01T00:03:43;101065.44;;;20.21;100.00
13015;BME280;6573;57.696;11.950;2022-08-01T00:06:11;101037.34;;;20.11;100.00
13015;BME280;6573;57.696;11.950;2022-08-01T00:08:41;101053.13;;;20.17;100.00
13015;BME280;6573;57.696;11.950;2022-08-01T00:11:09;101051.28;;;20.19;100.00
13015;BME280;6573;57.696;11.950;2022-08-01T00:13:37;101053.81;;;20.22;100.00
13015;BME280;6573;57.696;11.950;2022-08-01T00:16:06;101032.63;;;20.18;100.00
13015;BME280;6573;57.696;11.950;2022-08-01T00:18:34;101041.03;;;20.07;100.00
13015;BME280;6573;57.696;11.950;2022-08-01T00:21:03;101048.72;;;20.16;100.00
13015;BME280;6573;57.696;11.950;2022-08-01T00:23:33;101052.94;;;20.23;100.00
13015;BME280;6573;57.696;11.950;2022-08-01T00:26:03;101053.13;;;20.17;100.00
13015;BME280;6573;57.696;11.950;2022-08-01T00:28:31;101049.44;;;20.21;100.00
13015;BME280;6573;57.696;11.950;2022-08-01T00:30:59;101049.72;;;20.14;100.00
13015;BME280;6573;57.696;11.950;2022-08-01T00:33:27;101047.91;;;20.14;100.00
13015;BME280;6573;57.696;11.950;2022-08-01T00:35:55;101045.00;;;20.20;100.00
13015;BME280;6573;57.696;11.950;2022-08-01T00:38:24;101044.19;;;20.18;100.00
13015;BME280;6573;57.696;11.950;2022-08-01T00:40:52;101049.53;;;20.18;100.00
13015;BME280;6573;57.696;11.950;2022-08-01T00:43:21;101041.91;;;20.08;100.00
13015;BME280;6573;57.696;11.950;2022-08-01T00:45:49;101035.84;;;20.04;100.00
13015;BME280;6573;57.696;11.950;2022-08-01T00:48:17;101034.09;;;20.03;100.00
13015;BME280;6573;57.696;11.950;2022-08-01T00:50:47;101037.56;;;20.05;100.00
13015;BME280;6573;57.696;11.950;2022-08-01T00:53:15;101034.97;;;20.03;100.00
13015;BME280;6573;57.696;11.950;2022-08-01T00:55:44;101027.00;;;20.02;100.00
13015;BME280;6573;57.696;11.950;2022-08-01T00:58:12;101024.50;;;19.97;100.00
13015;BME280;6573;57.696;11.950;2022-08-01T01:00:44;101020.41;;;19.89;100.00
13015;BME280;6573;57.696;11.950;2022-08-01T01:03:20;101023.88;;;19.91;100.00
13015;BME280;6573;57.696;11.950;2022-08-01T01:06:15;101025.84;;;19.86;100.00
13015;BME280;6573;57.696;11.950;2022-08-01T01:08:55;101018.03;;;19.81;100.00
13015;BME280;6573;57.696;11.950;2022-08-01T01:11:33;101027.72;;;19.84;100.00
13015;BME280;6573;57.696;11.950;2022-08-01T01:14:07;101015.06;;;19.89;100.00
13015;BME280;6573;57.696;11.950;2022-08-01T01:16:40;101022.00;;;19.93;100.00
13015;BME280;6573;57.696;11.950;2022-08-01T01:19:15;101024.78;;;19.90;100.00
13015;BME280;6573;57.696;11.950;2022-08-01T01:22:00;101027.72;;;19.84;100.00
13015;BME280;6573;57.696;11.950;2022-08-01T01:24:45;101015.06;;;19.89;100.00
13015;BME280;6573;57.696;11.950;2022-08-01T01:27:24;101015.75;;;19.94;100.00
13015;BME280;6573;57.696;11.950;2022-08-01T01:29:58;101009.84;;;19.86;100.00
13015;BME280;6573;57.696;11.950;2022-08-01T01:32:31;101009.03;;;19.84;100.00
13015;BME280;6573;57.696;11.950;2022-08-01T01:35:05;101015.06;;;19.89;100.00
13015;BME280;6573;57.696;11.950;2022-08-01T01:37:35;101011.34;;;19.93;100.00
13015;BME280;6573;57.696;11.950;2022-08-01T01:40:07;101006.25;;;19.87;100.00
13015;BME280;6573;57.696;11.950;2022-08-01T01:42:38;101005.75;;;19.76;100.00
13015;BME280;6573;57.696;11.950;2022-08-01T01:45:09;101010.19;;;19.77;100.00
13015;BME280;6573;57.696;11.950;2022-08-01T01:47:38;101004.72;;;19.80;100.00
13015;BME280;6573;57.696;11.950;2022-08-01T01:50:08;101010.47;;;19.92;100.00
13015;BME280;6573;57.696;11.950;2022-08-01T01:52:39;101003.50;;;19.88;100.00
13015;BME280;6573;57.696;11.950;2022-08-01T01:55:09;101001.22;;;19.78;100.00
13015;BME280;6573;57.696;11.950;2022-08-01T01:57:39;100997.53;;;19.82;100.00
13015;BME280;6573;57.696;11.950;2022-08-01T02:00:11;100998.44;;;19.81;100.00
13015;BME280;6573;57.696;11.950;2022-08-01T02:02:40;100997.28;;;19.88;100.00
13015;BME280;6573;57.696;11.950;2022-08-01T02:05:11;100995.66;;;19.84;100.00
13015;BME280;6573;57.696;11.950;2022-08-01T02:07:40;100994.72;;;19.85;100.00
13015;BME280;6573;57.696;11.950;2022-08-01T02:10:10;100990.09;;;19.90;100.00
13015;BME280;6573;57.696;11.950;2022-08-01T02:12:41;100983.13;;;19.86;100.00
13015;BME280;6573;57.696;11.950;2022-08-01T02:15:14;100991.13;;;19.86;100.00
13015;BME280;6573;57.696;11.950;2022-08-01T02:17:46;100984.59;;;19.94;100.00
13015;BME280;6573;57.696;11.950;2022-08-01T02:20:16;100972.22;;;19.92;100.00
13015;BME280;6573;57.696;11.950;2022-08-01T02:22:47;100981.91;;;19.94;100.00
13015;BME280;6573;57.696;11.950;2022-08-01T02:25:20;100979.41;;;19.90;100.00
13015;BME280;6573;57.696;11.950;2022-08-01T02:27:55;100968.59;;;19.93;100.00
13015;BME280;6573;57.696;11.950;2022-08-01T02:30:32;100967.09;;;19.86;100.00
13015;BME280;6573;57.696;11.950;2022-08-01T02:33:05;100968.72;;;19.90;100.00
13015;BME280;6573;57.696;11.950;2022-08-01T02:35:42;100975.44;;;20.00;100.00
13015;BME280;6573;57.696;11.950;2022-08-01T02:38:34;100968.72;;;19.90;100.00
13015;BME280;6573;57.696;11.950;2022-08-01T02:41:07;100964.50;;;19.84;100.00
13015;BME280;6573;57.696;11.950;2022-08-01T02:43:37;100976.88;;;19.87;100.00
13015;BME280;6573;57.696;11.950;2022-08-01T02:46:12;100963.97;;;19.75;100.00
13015;BME280;6573;57.696;11.950;2022-08-01T02:48:44;100972.22;;;19.69;100.00
13015;BME280;6573;57.696;11.950;2022-08-01T02:51:14;100973.91;;;19.71;100.00
13015;BME280;6573;57.696;11.950;2022-08-01T02:53:44;100974.91;;;19.69;100.00
13015;BME280;6573;57.696;11.950;2022-08-01T02:56:15;100976.88;;;19.64;100.00
13015;BME280;6573;57.696;11.950;2022-08-01T02:58:46;100964.31;;;19.66;100.00
13015;BME280;6573;57.696;11.950;2022-08-01T03:01:17;100966.19;;;19.64;100.00
13015;BME280;6573;57.696;11.950;2022-08-01T03:03:47;100966.19;;;19.64;100.00
13015;BME280;6573;57.696;11.950;2022-08-01T03:06:16;100963.53;;;19.64;100.00
13015;BME280;6573;57.696;11.950;2022-08-01T03:08:47;100965.28;;;19.65;100.00
13015;BME280;6573;57.696;11.950;2022-08-01T03:11:18;100962.47;;;19.68;100.00
13015;BME280;6573;57.696;11.950;2022-08-01T03:13:48;100968.06;;;19.62;100.00
13015;BME280;6573;57.696;11.950;2022-08-01T03:16:20;100958.53;;;19.55;100.00
13015;BME280;6573;57.696;11.950;2022-08-01T03:18:51;100957.59;;;19.56;100.00
13015;BME280;6573;57.696;11.950;2022-08-01T03:21:22;100961.94;;;19.58;100.00
13015;BME280;6573;57.696;11.950;2022-08-01T03:23:51;100963.03;;;19.53;100.00
13015;BME280;6573;57.696;11.950;2022-08-01T03:26:26;100959.56;;;19.51;100.00
13015;BME280;6573;57.696;11.950;2022-08-01T03:28:56;100952.34;;;19.53;100.00
13015;BME280;6573;57.696;11.950;2022-08-01T03:31:26;100961.34;;;19.50;100.00
13015;BME280;6573;57.696;11.950;2022-08-01T03:33:55;100949.69;;;19.53;100.00
13015;BME280;6573;57.696;11.950;2022-08-01T03:36:32;100963.44;;;19.65;100.00
13015;BME280;6573;57.696;11.950;2022-08-01T03:39:04;100959.09;;;19.63;100.00
13015;BME280;6573;57.696;11.950;2022-08-01T03:41:39;100952.16;;;19.59;100.00
13015;BME280;6573;57.696;11.950;2022-08-01T03:44:13;100958.53;;;19.55;100.00
13015;BME280;6573;57.696;11.950;2022-08-01T03:46:45;100962.81;;;19.59;100.00
13015;BME280;6573;57.696;11.950;2022-08-01T03:49:18;100963.72;;;19.58;100.00
13015;BME280;6573;57.696;11.950;2022-08-01T03:51:49;100960.84;;;19.64;100.00
13015;BME280;6573;57.696;11.950;2022-08-01T03:54:21;100949.25;;;19.65;100.00
13015;BME280;6573;57.696;11.950;2022-08-01T03:56:52;100958.78;;;19.72;100.00
13015;BME280;6573;57.696;11.950;2022-08-01T03:59:20;100958.50;;;19.78;100.00
13015;BME280;6573;57.696;11.950;2022-08-01T04:01:50;100951.47;;;19.77;100.00
13015;BME280;6573;57.696;11.950;2022-08-01T04:04:19;100953.84;;;19.84;100.00
13015;BME280;6573;57.696;11.950;2022-08-01T04:06:47;100936.81;;;19.64;100.00
13015;BME280;6573;57.696;11.950;2022-08-01T04:09:17;100956.91;;;19.74;100.00
13015;BME280;6573;57.696;11.950;2022-08-01T04:11:46;100943.75;;;19.69;100.00
13015;BME280;6573;57.696;11.950;2022-08-01T04:14:14;100956.78;;;19.77;100.00
13015;BME280;6573;57.696;11.950;2022-08-01T04:16:42;100947.94;;;19.75;100.00
13015;BME280;6573;57.696;11.950;2022-08-01T04:19:13;100949.00;;;19.71;100.00
13015;BME280;6573;57.696;11.950;2022-08-01T04:21:41;100953.44;;;19.72;100.00
13015;BME280;6573;57.696;11.950;2022-08-01T04:24:13;100946.44;;;19.68;100.00
13015;BME280;6573;57.696;11.950;2022-08-01T04:26:45;100949.81;;;19.73;100.00
13015;BME280;6573;57.696;11.950;2022-08-01T04:29:16;100947.16;;;19.73;100.00
13015;BME280;6573;57.696;11.950;2022-08-01T04:31:47;100947.84;;;19.78;100.00
13015;BME280;6573;57.696;11.950;2022-08-01T04:34:21;100943.56;;;19.74;100.00
13015;BME280;6573;57.696;11.950;2022-08-01T04:36:52;100912.81;;;19.64;100.00
13015;BME280;6573;57.696;11.950;2022-08-01T04:39:23;100945.84;;;19.83;100.00
13015;BME280;6573;57.696;11.950;2022-08-01T04:41:54;100928.56;;;19.70;100.00
13015;BME280;6573;57.696;11.950;2022-08-01T04:44:24;100947.63;;;19.84;100.00
13015;BME280;6573;57.696;11.950;2022-08-01T04:46:58;100953.06;;;19.81;100.00
13015;BME280;6573;57.696;11.950;2022-08-01T04:49:30;100955.63;;;19.84;100.00
13015;BME280;6573;57.696;11.950;2022-08-01T04:52:14;100946.34;;;19.71;100.00
13015;BME280;6573;57.696;11.950;2022-08-01T04:54:50;100944.13;;;19.59;100.00
13015;BME280;6573;57.696;11.950;2022-08-01T04:57:18;100946.03;;;19.55;100.00
13015;BME280;6573;57.696;11.950;2022-08-01T04:59:47;100963.41;;;19.67;100.00
13015;BME280;6573;57.696;11.950;2022-08-01T05:02:17;100959.09;;;19.63;100.00
13015;BME280;6573;57.696;11.950;2022-08-01T05:04:47;100962.72;;;19.62;100.00
13015;BME280;6573;57.696;11.950;2022-08-01T05:07:15;100964.22;;;19.69;100.00
13015;BME280;6573;57.696;11.950;2022-08-01T05:09:43;100962.34;;;19.71;100.00
13015;BME280;6573;57.696;11.950;2022-08-01T05:12:13;100973.03;;;19.71;100.00
13015;BME280;6573;57.696;11.950;2022-08-01T05:14:42;100946.28;;;19.49;100.00
13015;BME280;6573;57.696;11.950;2022-08-01T05:17:10;100969.66;;;19.66;100.00
13015;BME280;6573;57.696;11.950;2022-08-01T05:19:39;100962.34;;;19.71;100.00
13015;BME280;6573;57.696;11.950;2022-08-01T05:22:10;100970.44;;;19.69;100.00
13015;BME280;6573;57.696;11.950;2022-08-01T05:24:39;100960.03;;;19.62;100.00
13015;BME280;6573;57.696;11.950;2022-08-01T05:27:10;100962.81;;;19.59;100.00
13015;BME280;6573;57.696;11.950;2022-08-01T05:29:42;100967.34;;;19.57;100.00
13015;BME280;6573;57.696;11.950;2022-08-01T05:32:10;100982.31;;;19.61;100.00
13015;BME280;6573;57.696;11.950;2022-08-01T05:34:38;100977.44;;;19.49;100.00
13015;BME280;6573;57.696;11.950;2022-08-01T05:37:07;100980.91;;;19.51;100.00
13015;BME280;6573;57.696;11.950;2022-08-01T05:39:36;100976.78;;;19.42;100.00
13015;BME280;6573;57.696;11.950;2022-08-01T05:42:04;100966.84;;;19.46;100.00
13015;BME280;6573;57.696;11.950;2022-08-01T05:44:33;100980.91;;;19.51;100.00
13015;BME280;6573;57.696;11.950;2022-08-01T05:47:02;100959.56;;;19.51;100.00
13015;BME280;6573;57.696;11.950;2022-08-01T05:49:30;100968.81;;;19.41;100.00
13015;BME280;6573;57.696;11.950;2022-08-01T05:51:58;100972.09;;;19.49;100.00
13015;BME280;6573;57.696;11.950;2022-08-01T05:54:29;100979.41;;;19.44;100.00
13015;BME280;6573;57.696;11.950;2022-08-01T05:56:58;100972.09;;;19.49;100.00
13015;BME280;6573;57.696;11.950;2022-08-01T05:59:28;100973.50;;;19.59;100.00
13015;BME280;6573;57.696;11.950;2022-08-01T06:01:57;100979.03;;;19.53;100.00
13015;BME280;6573;57.696;11.950;2022-08-01T06:04:25;100973.94;;;19.47;100.00
13015;BME280;6573;57.696;11.950;2022-08-01T06:06:53;100978.59;;;19.42;100.00
13015;BME280;6573;57.696;11.950;2022-08-01T06:09:21;100962.47;;;19.45;100.00
13015;BME280;6573;57.696;11.950;2022-08-01T06:11:49;100969.66;;;19.66;100.00
13015;BME280;6573;57.696;11.950;2022-08-01T06:14:19;100968.84;;;19.64;100.00
13015;BME280;6573;57.696;11.950;2022-08-01T06:16:47;100970.47;;;19.45;100.00
13015;BME280;6573;57.696;11.950;2022-08-01T06:19:15;100979.59;;;19.37;100.00
13015;BME280;6573;57.696;11.950;2022-08-01T06:21:44;100980.00;;;19.25;100.00
13015;BME280;6573;57.696;11.950;2022-08-01T06:24:12;100974.69;;;19.25;100.00
13015;BME280;6573;57.696;11.950;2022-08-01T06:26:40;100985.25;;;19.28;100.00
13015;BME280;6573;57.696;11.950;2022-08-01T06:29:09;100994.91;;;19.32;100.00
13015;BME280;6573;57.696;11.950;2022-08-01T06:31:39;100995.72;;;19.34;100.00
13015;BME280;6573;57.696;11.950;2022-08-01T06:34:07;100999.22;;;19.36;100.00
13015;BME280;6573;57.696;11.950;2022-08-01T06:36:35;100992.97;;;19.36;100.00
13015;BME280;6573;57.696;11.950;2022-08-01T06:39:03;100990.81;;;19.22;100.00
13015;BME280;6573;57.696;11.950;2022-08-01T06:41:32;100976.63;;;19.20;100.00
13015;BME280;6573;57.696;11.950;2022-08-01T06:44:01;100996.78;;;19.29;100.00
13015;BME280;6573;57.696;11.950;2022-08-01T06:46:31;100986.22;;;19.26;100.00
13015;BME280;6573;57.696;11.950;2022-08-01T06:49:02;100985.34;;;19.25;100.00
13015;BME280;6573;57.696;11.950;2022-08-01T06:51:30;100992.44;;;19.26;100.00
13015;BME280;6573;57.696;11.950;2022-08-01T06:53:58;100988.09;;;19.24;100.00
13015;BME280;6573;57.696;11.950;2022-08-01T06:56:26;100994.47;;;18.94;100.00
13015;BME280;6573;57.696;11.950;2022-08-01T06:58:55;100986.56;;;18.92;100.00
13015;BME280;6573;57.696;11.950;2022-08-01T07:01:27;101003.84;;;19.05;100.00
13015;BME280;6573;57.696;11.950;2022-08-01T07:03:59;100997.16;;;19.18;100.00
13015;BME280;6573;57.696;11.950;2022-08-01T07:06:29;100996.25;;;19.19;100.00
13015;BME280;6573;57.696;11.950;2022-08-01T07:08:57;100998.25;;;19.39;100.00
13015;BME280;6573;57.696;11.950;2022-08-01T07:11:36;101002.78;;;19.35;100.00
13015;BME280;6573;57.696;11.950;2022-08-01T07:14:04;101007.28;;;19.33;100.00
13015;BME280;6573;57.696;11.950;2022-08-01T07:16:33;100990.38;;;19.34;100.00
13015;BME280;6573;57.696;11.950;2022-08-01T07:19:01;101003.56;;;19.64;100.00
13015;BME280;6573;57.696;11.950;2022-08-01T07:21:30;101004.84;;;19.77;100.00
13015;BME280;6573;57.696;11.950;2022-08-01T07:24:07;100990.56;;;19.78;100.00
13015;BME280;6573;57.696;11.950;2022-08-01T07:26:40;100991.13;;;19.63;100.00
13015;BME280;6573;57.696;11.950;2022-08-01T07:29:18;101000.06;;;19.62;100.00
13015;BME280;6573;57.696;11.950;2022-08-01T07:31:46;101000.94;;;19.62;100.00
13015;BME280;6573;57.696;11.950;2022-08-01T07:34:14;100994.38;;;19.71;100.00
13015;BME280;6573;57.696;11.950;2022-08-01T07:36:44;100994.00;;;19.81;100.00
13015;BME280;6573;57.696;11.950;2022-08-01T07:39:12;100997.06;;;19.94;100.00
13015;BME280;6573;57.696;11.950;2022-08-01T07:41:40;101000.75;;;19.90;100.00
13015;BME280;6573;57.696;11.950;2022-08-01T07:44:28;100991.13;;;19.86;100.00
13015;BME280;6573;57.696;11.950;2022-08-01T07:46:57;100983.03;;;19.89;100.00
13015;BME280;6573;57.696;11.950;2022-08-01T07:49:25;100996.25;;;19.69;100.00
13015;BME280;6573;57.696;11.950;2022-08-01T07:51:54;100998.31;;;19.61;100.00
13015;BME280;6573;57.696;11.950;2022-08-01T07:54:39;101000.19;;;19.59;100.00
13015;BME280;6573;57.696;11.950;2022-08-01T07:57:07;101000.91;;;19.87;100.00
13015;BME280;6573;57.696;11.950;2022-08-01T07:59:36;101004.84;;;20.45;100.00
13015;BME280;6573;57.696;11.950;2022-08-01T08:02:04;100999.19;;;20.52;100.00
13015;BME280;6573;57.696;11.950;2022-08-01T08:04:33;100994.84;;;20.05;100.00
13015;BME280;6573;57.696;11.950;2022-08-01T08:07:02;100976.16;;;20.28;100.00
13015;BME280;6573;57.696;11.950;2022-08-01T08:09:31;100999.28;;;20.29;100.00
13015;BME280;6573;57.696;11.950;2022-08-01T08:12:04;101005.41;;;20.08;100.00
13015;BME280;6573;57.696;11.950;2022-08-01T08:14:34;101006.50;;;20.02;100.00
13015;BME280;6573;57.696;11.950;2022-08-01T08:17:02;101012.31;;;20.58;100.00
13015;BME280;6573;57.696;11.950;2022-08-01T08:19:31;101004.16;;;21.25;100.00
13015;BME280;6573;57.696;11.950;2022-08-01T08:22:08;101012.84;;;21.10;100.00
13015;BME280;6573;57.696;11.950;2022-08-01T08:24:37;100997.34;;;21.18;100.00
13015;BME280;6573;57.696;11.950;2022-08-01T08:27:12;101004.72;;;20.70;100.00
13015;BME280;6573;57.696;11.950;2022-08-01T08:29:41;101002.72;;;20.75;100.00
13015;BME280;6573;57.696;11.950;2022-08-01T08:32:10;101005.19;;;21.01;100.00
13015;BME280;6573;57.696;11.950;2022-08-01T08:34:38;101013.22;;;21.01;100.00
13015;BME280;6573;57.696;11.950;2022-08-01T08:37:08;101008.28;;;21.12;100.00
13015;BME280;6573;57.696;11.950;2022-08-01T08:39:36;101009.50;;;21.45;100.00
13015;BME280;6573;57.696;11.950;2022-08-01T08:42:08;101008.16;;;21.55;100.00
13015;BME280;6573;57.696;11.950;2022-08-01T08:44:36;101008.16;;;21.55;100.00
13015;BME280;6573;57.696;11.950;2022-08-01T08:47:11;101001.03;;;21.54;100.00
13015;BME280;6573;57.696;11.950;2022-08-01T08:49:45;101004.59;;;21.93;100.00
13015;BME280;6573;57.696;11.950;2022-08-01T08:52:17;101001.16;;;21.71;100.00
13015;BME280;6573;57.696;11.950;2022-08-01T08:54:47;101005.59;;;21.72;100.00
13015;BME280;6573;57.696;11.950;2022-08-01T08:57:16;101007.91;;;21.21;100.00
13015;BME280;6573;57.696;11.950;2022-08-01T08:59:47;101012.66;;;20.93;100.00
13015;BME280;6573;57.696;11.950;2022-08-01T09:02:15;101016.88;;;20.77;100.00
13015;BME280;6573;57.696;11.950;2022-08-01T09:04:43;101011.16;;;21.07;100.00
13015;BME280;6573;57.696;11.950;2022-08-01T09:07:12;101014.66;;;20.88;100.00
13015;BME280;6573;57.696;11.950;2022-08-01T09:09:42;101024.19;;;20.73;100.00
13015;BME280;6573;57.696;11.950;2022-08-01T09:12:10;101036.06;;;20.88;100.00
13015;BME280;6573;57.696;11.950;2022-08-01T09:14:44;101028.59;;;20.74;100.00
13015;BME280;6573;57.696;11.950;2022-08-01T09:17:13;101022.91;;;20.61;100.00
13015;BME280;6573;57.696;11.950;2022-08-01T09:19:42;101003.13;;;20.65;100.00
13015;BME280;6573;57.696;11.950;2022-08-01T09:22:13;101027.34;;;20.83;100.00
13015;BME280;6573;57.696;11.950;2022-08-01T09:24:59;101033.69;;;20.80;100.00
13015;BME280;6573;57.696;11.950;2022-08-01T09:27:27;101033.69;;;20.80;100.00
13015;BME280;6573;57.696;11.950;2022-08-01T09:30:07;101037.19;;;20.60;100.00
13015;BME280;6573;57.696;11.950;2022-08-01T09:35:25;101028.25;;;21.45;100.00
13015;BME280;6573;57.696;11.950;2022-08-01T09:38:12;101032.63;;;21.66;100.00
13015;BME280;6573;57.696;11.950;2022-08-01T09:40:48;101021.91;;;21.66;100.00
13015;BME280;6573;57.696;11.950;2022-08-01T09:43:16;101016.44;;;21.09;100.00
13015;BME280;6573;57.696;11.950;2022-08-01T09:45:45;101019.41;;;20.81;100.00
13015;BME280;6573;57.696;11.950;2022-08-01T09:48:16;101029.72;;;20.69;100.00
13015;BME280;6573;57.696;11.950;2022-08-01T09:50:46;101027.59;;;20.77;100.00
13015;BME280;6573;57.696;11.950;2022-08-01T09:53:15;101028.38;;;20.58;100.00
13015;BME280;6573;57.696;11.950;2022-08-01T09:56:09;101039.06;;;20.58;100.00
13015;BME280;6573;57.696;11.950;2022-08-01T09:58:53;101032.44;;;20.67;100.00
13015;BME280;6573;57.696;11.950;2022-08-01T10:01:26;101047.75;;;20.85;100.00
13015;BME280;6573;57.696;11.950;2022-08-01T10:04:08;101050.63;;;20.81;100.00
13015;BME280;6573;57.696;11.950;2022-08-01T10:06:38;101032.81;;;20.80;100.00
13015;BME280;6573;57.696;11.950;2022-08-01T10:09:09;101053.72;;;20.70;100.00
13015;BME280;6573;57.696;11.950;2022-08-01T10:11:42;101058.44;;;20.63;100.00
13015;BME280;6573;57.696;11.950;2022-08-01T10:14:11;101039.66;;;20.43;100.00
13015;BME280;6573;57.696;11.950;2022-08-01T10:16:45;101059.56;;;20.36;100.00
13015;BME280;6573;57.696;11.950;2022-08-01T10:19:22;101060.66;;;20.52;100.00
13015;BME280;6573;57.696;11.950;2022-08-01T10:21:55;101056.59;;;20.65;100.00
13015;BME280;6573;57.696;11.950;2022-08-01T10:24:27;101060.31;;;20.61;100.00
13015;BME280;6573;57.696;11.950;2022-08-01T10:27:02;101063.91;;;20.60;100.00
13015;BME280;6573;57.696;11.950;2022-08-01T10:29:40;101064.75;;;20.39;100.00
13015;BME280;6573;57.696;11.950;2022-08-01T10:32:29;101058.72;;;20.11;100.00
13015;BME280;6573;57.696;11.950;2022-08-01T10:34:58;101060.03;;;20.24;100.00
13015;BME280;6573;57.696;11.950;2022-08-01T10:37:33;101059.78;;;20.30;100.00
13015;BME280;6573;57.696;11.950;2022-08-01T10:40:18;101061.75;;;20.25;100.00
13015;BME280;6573;57.696;11.950;2022-08-01T10:42:58;101065.94;;;20.09;100.00
13015;BME280;6573;57.696;11.950;2022-08-01T10:45:27;101038.38;;;20.07;100.00
13015;BME280;6573;57.696;11.950;2022-08-01T10:47:59;101064.91;;;20.36;100.00
13015;BME280;6573;57.696;11.950;2022-08-01T10:50:33;101059.03;;;20.27;100.00
13015;BME280;6573;57.696;11.950;2022-08-01T10:53:13;101064.16;;;20.08;100.00
13015;BME280;6573;57.696;11.950;2022-08-01T10:55:59;101057.47;;;20.20;100.00
13015;BME280;6573;57.696;11.950;2022-08-01T10:58:32;101065.13;;;20.30;100.00
13015;BME280;6573;57.696;11.950;2022-08-01T11:01:21;101073.25;;;20.04;100.00
13015;BME280;6573;57.696;11.950;2022-08-01T11:04:10;101071.06;;;19.90;100.00
13015;BME280;6573;57.696;11.950;2022-08-01T11:06:54;101081.94;;;20.09;100.00
13015;BME280;6573;57.696;11.950;2022-08-01T11:09:28;101068.44;;;20.12;100.00
13015;BME280;6573;57.696;11.950;2022-08-01T11:12:06;101072.66;;;20.19;100.00
13015;BME280;6573;57.696;11.950;2022-08-01T11:15:18;101050.19;;;20.25;100.00
13015;BME280;6573;57.696;11.950;2022-08-01T11:17:58;101077.56;;;20.31;100.00
13015;BME280;6573;57.696;11.950;2022-08-01T11:20:29;101084.78;;;20.29;100.00
13015;BME280;6573;57.696;11.950;2022-08-01T11:23:28;101088.47;;;20.25;100.00
13015;BME280;6573;57.696;11.950;2022-08-01T11:26:19;101092.38;;;20.15;100.00
13015;BME280;6573;57.696;11.950;2022-08-01T11:29:17;101088.25;;;20.31;100.00
13015;BME280;6573;57.696;11.950;2022-08-01T11:31:49;101085.31;;;20.60;100.00
13015;BME280;6573;57.696;11.950;2022-08-01T11:34:19;101092.84;;;20.49;100.00
13015;BME280;6573;57.696;11.950;2022-08-01T11:36:47;101091.25;;;20.45;100.00
13015;BME280;6573;57.696;11.950;2022-08-01T11:39:25;101093.44;;;20.34;100.00
13015;BME280;6573;57.696;11.950;2022-08-01T11:41:55;101092.84;;;20.49;100.00
13015;BME280;6573;57.696;11.950;2022-08-01T11:44:53;101102.41;;;20.56;100.00
13015;BME280;6573;57.696;11.950;2022-08-01T11:47:45;101104.72;;;20.65;100.00
13015;BME280;6573;57.696;11.950;2022-08-01T11:50:32;101099.34;;;20.65;100.00
13015;BME280;6573;57.696;11.950;2022-08-01T11:53:02;101119.25;;;20.80;100.00
13015;BME280;6573;57.696;11.950;2022-08-01T11:55:31;101085.78;;;20.48;100.00
13015;BME280;6573;57.696;11.950;2022-08-01T11:58:03;101112.22;;;20.78;100.00
13015;BME280;6573;57.696;11.950;2022-08-01T12:00:32;101115.22;;;20.70;100.00
13015;BME280;6573;57.696;11.950;2022-08-01T12:03:04;101114.41;;;20.90;100.00
13015;BME280;6573;57.696;11.950;2022-08-01T12:05:34;101117.50;;;20.57;100.00
13015;BME280;6573;57.696;11.950;2022-08-01T12:08:09;101111.78;;;20.66;100.00
13015;BME280;6573;57.696;11.950;2022-08-01T12:10:37;101118.88;;;20.67;100.00
13015;BME280;6573;57.696;11.950;2022-08-01T12:13:15;101113.53;;;20.67;100.00
13015;BME280;6573;57.696;11.950;2022-08-01T12:15:44;101120.47;;;20.72;100.00
13015;BME280;6573;57.696;11.950;2022-08-01T12:18:14;101124.81;;;20.52;100.00
13015;BME280;6573;57.696;11.950;2022-08-01T12:20:44;101119.34;;;20.55;100.00
13015;BME280;6573;57.696;11.950;2022-08-01T12:23:22;101122.00;;;20.79;100.00
13015;BME280;6573;57.696;11.950;2022-08-01T12:25:51;101121.63;;;20.88;100.00
13015;BME280;6573;57.696;11.950;2022-08-01T12:28:20;101114.53;;;20.87;100.00
13015;BME280;6573;57.696;11.950;2022-08-01T12:30:50;101121.41;;;20.94;100.00
13015;BME280;6573;57.696;11.950;2022-08-01T12:33:20;101119.53;;;20.96;100.00
13015;BME280;6573;57.696;11.950;2022-08-01T12:35:48;101113.91;;;21.02;100.00
13015;BME280;6573;57.696;11.950;2022-08-01T12:38:20;101120.25;;;20.78;100.00
13015;BME280;6573;57.696;11.950;2022-08-01T12:40:51;101119.13;;;20.61;100.00
13015;BME280;6573;57.696;11.950;2022-08-01T12:43:21;101109.31;;;20.84;100.00
13015;BME280;6573;57.696;11.950;2022-08-01T12:45:56;101116.97;;;20.93;100.00
13015;BME280;6573;57.696;11.950;2022-08-01T12:48:30;101116.41;;;20.85;100.00
13015;BME280;6573;57.696;11.950;2022-08-01T12:50:59;101114.19;;;20.96;100.00
13015;BME280;6573;57.696;11.950;2022-08-01T12:53:33;101117.53;;;21.01;100.00
13015;BME280;6573;57.696;11.950;2022-08-01T12:56:07;101122.25;;;20.73;100.00
13015;BME280;6573;57.696;11.950;2022-08-01T12:58:36;101123.81;;;21.00;100.00
13015;BME280;6573;57.696;11.950;2022-08-01T13:01:05;101121.25;;;20.75;100.00
13015;BME280;6573;57.696;11.950;2022-08-01T13:03:35;101138.66;;;20.63;100.00
13015;BME280;6573;57.696;11.950;2022-08-01T13:06:10;101139.16;;;20.73;100.00
13015;BME280;6573;57.696;11.950;2022-08-01T13:08:39;101129.19;;;20.77;100.00